sensor_id;sensor_type;location;lat;lon;timestamp;temperature;humidity
76750;DHT22;66447;35.844;14.468;2023-03-12T00:10:58;17.85;118.99
76750;DHT22;66447;35.844;14.468;2023-03-12T00:26:02;18.19;118.99
76750;DHT22;66447;35.844;14.468;2023-03-12T00:41:04;17.66;118.99
76750;DHT22;66447;35.844;14.468;2023-03-12T00:56:05;18.20;118.99
76750;DHT22;66447;35.844;14.468;2023-03-12T01:11:06;17.80;118.99
76750;DHT22;66447;35.844;14.468;2023-03-12T01:26:07;18.07;118.99
76750;DHT22;66447;35.844;14.468;2023-03-12T01:41:08;17.91;118.99
76750;DHT22;66447;35.844;14.468;2023-03-12T01:56:09;17.60;118.99
76750;DHT22;66447;35.844;14.468;2023-03-12T02:11:11;17.80;118.99
76750;DHT22;66447;35.844;14.468;2023-03-12T02:26:13;17.62;118.99
76750;DHT22;66447;35.844;14.468;2023-03-12T02:41:23;17.63;118.99
76750;DHT22;66447;35.844;14.468;2023-03-12T02:56:26;17.65;118.99
76750;DHT22;66447;35.844;14.468;2023-03-12T03:11:28;17.00;118.99
76750;DHT22;66447;35.844;14.468;2023-03-12T03:26:29;17.44;118.99
76750;DHT22;66447;35.844;14.468;2023-03-12T03:41:30;17.51;118.99
76750;DHT22;66447;35.844;14.468;2023-03-12T03:56:32;17.52;118.99
76750;DHT22;66447;35.844;14.468;2023-03-12T04:11:33;17.22;118.99
76750;DHT22;66447;35.844;14.468;2023-03-12T04:26:34;17.30;118.99
76750;DHT22;66447;35.844;14.468;2023-03-12T04:41:36;16.77;118.99
76750;DHT22;66447;35.844;14.468;2023-03-12T04:56:38;17.61;118.99
76750;DHT22;66447;35.844;14.468;2023-03-12T05:11:39;17.61;118.99
76750;DHT22;66447;35.844;14.468;2023-03-12T05:26:41;17.11;118.99
76750;DHT22;66447;35.844;14.468;2023-03-12T05:41:42;17.02;118.99
76750;DHT22;66447;35.844;14.468;2023-03-12T05:56:44;17.75;118.99
76750;DHT22;66447;35.844;14.468;2023-03-12T06:11:45;18.30;118.99
76750;DHT22;66447;35.844;14.468;2023-03-12T06:26:46;17.82;118.99
76750;DHT22;66447;35.844;14.468;2023-03-12T06:41:47;17.87;118.99
76750;DHT22;66447;35.844;14.468;2023-03-12T06:56:48;18.74;118.99
76750;DHT22;66447;35.844;14.468;2023-03-12T07:11:49;18.86;118.99
76750;DHT22;66447;35.844;14.468;2023-03-12T07:26:51;19.27;118.99
76750;DHT22;66447;35.844;14.468;2023-03-12T07:41:52;19.58;118.99
76750;DHT22;66447;35.844;14.468;2023-03-12T07:56:53;20.02;118.99
76750;DHT22;66447;35.844;14.468;2023-03-12T08:11:54;20.53;118.99
76750;DHT22;66447;35.844;14.468;2023-03-12T08:26:56;19.99;118.99
76750;DHT22;66447;35.844;14.468;2023-03-12T08:41:57;19.41;118.99
76750;DHT22;66447;35.844;14.468;2023-03-12T08:56:59;16.87;118.99
76750;DHT22;66447;35.844;14.468;2023-03-12T09:12:00;19.10;118.99
76750;DHT22;66447;35.844;14.468;2023-03-12T09:27:01;21.70;118.99
76750;DHT22;66447;35.844;14.468;2023-03-12T09:42:05;22.09;118.99
76750;DHT22;66447;35.844;14.468;2023-03-12T09:57:22;20.57;118.99
76750;DHT22;66447;35.844;14.468;2023-03-12T10:12:35;20.43;118.99
76750;DHT22;66447;35.844;14.468;2023-03-12T10:27:39;22.42;118.99
76750;DHT22;66447;35.844;14.468;2023-03-12T10:42:41;20.72;118.99
76750;DHT22;66447;35.844;14.468;2023-03-12T10:57:42;21.24;118.99
76750;DHT22;66447;35.844;14.468;2023-03-12T11:12:56;20.40;118.99
76750;DHT22;66447;35.844;14.468;2023-03-12T11:28:02;21.13;118.99
76750;DHT22;66447;35.844;14.468;2023-03-12T12:28:57;21.50;118.99
76750;DHT22;66447;35.844;14.468;2023-03-12T12:44:04;21.44;118.99
76750;DHT22;66447;35.844;14.468;2023-03-12T12:59:16;22.69;118.99
76750;DHT22;66447;35.844;14.468;2023-03-12T13:14:36;21.46;118.99
76750;DHT22;66447;35.844;14.468;2023-03-12T13:29:40;22.25;118.99
76750;DHT22;66447;35.844;14.468;2023-03-12T13:44:44;22.48;118.99
76750;DHT22;66447;35.844;14.468;2023-03-12T13:59:48;21.76;118.99
76750;DHT22;66447;35.844;14.468;2023-03-12T14:15:08;21.30;118.99
76750;DHT22;66447;35.844;14.468;2023-03-12T14:30:22;20.86;118.99
76750;DHT22;66447;35.844;14.468;2023-03-12T14:45:24;20.64;118.99
76750;DHT22;66447;35.844;14.468;2023-03-12T15:00:27;19.45;118.99
76750;DHT22;66447;35.844;14.468;2023-03-12T15:15:40;19.74;118.99
76750;DHT22;66447;35.844;14.468;2023-03-12T15:30:42;19.65;118.99
76750;DHT22;66447;35.844;14.468;2023-03-12T15:45:44;18.71;118.99
76750;DHT22;66447;35.844;14.468;2023-03-12T16:00:45;18.54;118.99
76750;DHT22;66447;35.844;14.468;2023-03-12T16:15:47;18.06;118.99
76750;DHT22;66447;35.844;14.468;2023-03-12T16:30:48;17.60;118.99
76750;DHT22;66447;35.844;14.468;2023-03-12T16:45:51;17.67;118.99
76750;DHT22;66447;35.844;14.468;2023-03-12T17:00:53;17.34;118.99
76750;DHT22;66447;35.844;14.468;2023-03-12T17:15:55;17.31;118.99
76750;DHT22;66447;35.844;14.468;2023-03-12T17:30:56;17.21;118.99
76750;DHT22;66447;35.844;14.468;2023-03-12T17:45:57;17.37;118.99
76750;DHT22;66447;35.844;14.468;2023-03-12T18:01:03;16.98;118.99
76750;DHT22;66447;35.844;14.468;2023-03-12T18:16:04;16.82;118.99
76750;DHT22;66447;35.844;14.468;2023-03-12T18:31:05;17.13;118.99
76750;DHT22;66447;35.844;14.468;2023-03-12T18:46:07;17.26;118.99
76750;DHT22;66447;35.844;14.468;2023-03-12T19:01:08;18.03;118.99
76750;DHT22;66447;35.844;14.468;2023-03-12T19:16:12;17.44;118.99
76750;DHT22;66447;35.844;14.468;2023-03-12T19:31:15;16.91;118.99
76750;DHT22;66447;35.844;14.468;2023-03-12T19:46:16;17.22;118.99
76750;DHT22;66447;35.844;14.468;2023-03-12T20:01:17;17.33;118.99
76750;DHT22;66447;35.844;14.468;2023-03-12T20:16:20;17.83;118.99
76750;DHT22;66447;35.844;14.468;2023-03-12T20:31:22;18.02;118.99
76750;DHT22;66447;35.844;14.468;2023-03-12T20:46:25;18.00;118.99
76750;DHT22;66447;35.844;14.468;2023-03-12T21:01:26;17.69;118.99
76750;DHT22;66447;35.844;14.468;2023-03-12T21:16:28;17.21;118.99
76750;DHT22;66447;35.844;14.468;2023-03-12T21:31:28;17.77;118.99
76750;DHT22;66447;35.844;14.468;2023-03-12T21:46:30;17.48;118.99
76750;DHT22;66447;35.844;14.468;2023-03-12T22:01:31;18.33;118.99
76750;DHT22;66447;35.844;14.468;2023-03-12T22:16:32;19.16;118.99
76750;DHT22;66447;35.844;14.468;2023-03-12T22:31:33;18.71;118.99
76750;DHT22;66447;35.844;14.468;2023-03-12T22:46:34;18.69;118.99
76750;DHT22;66447;35.844;14.468;2023-03-12T23:01:35;17.51;118.99
76750;DHT22;66447;35.844;14.468;2023-03-12T23:16:36;17.74;118.99
76750;DHT22;66447;35.844;14.468;2023-03-12T23:31:37;17.61;118.99
76750;DHT22;66447;35.844;14.468;2023-03-12T23:46:39;17.60;118.99
